sensor_id;sensor_type;location;lat;lon;timestamp;pressure;altitude;pressure_sealevel;temperature;humidity
74868;BME280;63419;42.262;12.210;2023-01-08T00:01:48;98013.16;;;12.33;100.00
74868;BME280;63419;42.262;12.210;2023-01-08T00:04:25;98019.09;;;12.63;100.00
74868;BME280;63419;42.262;12.210;2023-01-08T00:06:53;98015.31;;;13.34;100.00
74868;BME280;63419;42.262;12.210;2023-01-08T00:09:21;98021.28;;;13.09;100.00
74868;BME280;63419;42.262;12.210;2023-01-08T00:11:49;98012.16;;;13.16;100.00
74868;BME280;63419;42.262;12.210;2023-01-08T00:14:34;98010.44;;;12.76;100.00
74868;BME280;63419;42.262;12.210;2023-01-08T00:17:03;98010.19;;;13.07;100.00
74868;BME280;63419;42.262;12.210;2023-01-08T00:19:37;98002.56;;;12.78;100.00
74868;BME280;63419;42.262;12.210;2023-01-08T00:22:09;98001.16;;;13.00;100.00
74868;BME280;63419;42.262;12.210;2023-01-08T00:24:36;97996.13;;;13.37;100.00
74868;BME280;63419;42.262;12.210;2023-01-08T00:27:03;98007.28;;;12.59;100.00
74868;BME280;63419;42.262;12.210;2023-01-08T00:29:30;98000.63;;;12.94;100.00
74868;BME280;63419;42.262;12.210;2023-01-08T00:31:58;97996.63;;;12.36;100.00
74868;BME280;63419;42.262;12.210;2023-01-08T00:34:25;97992.50;;;12.19;100.00
74868;BME280;63419;42.262;12.210;2023-01-08T00:36:52;98004.25;;;12.25;100.00
74868;BME280;63419;42.262;12.210;2023-01-08T00:39:20;98009.78;;;12.18;100.00
74868;BME280;63419;42.262;12.210;2023-01-08T00:41:47;98015.19;;;12.01;100.00
74868;BME280;63419;42.262;12.210;2023-01-08T00:44:15;98022.41;;;12.10;100.00
74868;BME280;63419;42.262;12.210;2023-01-08T00:46:42;98017.97;;;12.80;100.00
74868;BME280;63419;42.262;12.210;2023-01-08T00:49:09;98018.50;;;12.03;100.00
74868;BME280;63419;42.262;12.210;2023-01-08T00:51:37;98024.22;;;12.08;100.00
74868;BME280;63419;42.262;12.210;2023-01-08T00:54:04;98023.19;;;12.52;100.00
74868;BME280;63419;42.262;12.210;2023-01-08T00:56:31;98020.53;;;12.67;100.00
74868;BME280;63419;42.262;12.210;2023-01-08T00:58:59;98024.56;;;12.58;100.00
74868;BME280;63419;42.262;12.210;2023-01-08T01:01:28;98014.19;;;12.58;100.00
74868;BME280;63419;42.262;12.210;2023-01-08T01:03:56;98004.38;;;13.16;100.00
74868;BME280;63419;42.262;12.210;2023-01-08T01:06:24;98000.94;;;13.03;100.00
74868;BME280;63419;42.262;12.210;2023-01-08T01:08:51;97997.56;;;13.66;100.00
74868;BME280;63419;42.262;12.210;2023-01-08T01:11:22;97996.72;;;13.79;100.00
74868;BME280;63419;42.262;12.210;2023-01-08T01:13:51;98001.47;;;14.22;100.00
74868;BME280;63419;42.262;12.210;2023-01-08T01:16:20;97992.84;;;14.45;100.00
74868;BME280;63419;42.262;12.210;2023-01-08T01:18:48;97999.81;;;14.45;100.00
74868;BME280;63419;42.262;12.210;2023-01-08T01:21:28;97995.16;;;14.74;100.00
74868;BME280;63419;42.262;12.210;2023-01-08T01:24:00;97989.28;;;14.83;100.00
74868;BME280;63419;42.262;12.210;2023-01-08T01:26:29;97984.69;;;14.98;100.00
74868;BME280;63419;42.262;12.210;2023-01-08T01:28:58;97987.78;;;15.03;100.00
74868;BME280;63419;42.262;12.210;2023-01-08T01:31:29;97984.72;;;15.10;100.00
74868;BME280;63419;42.262;12.210;2023-01-08T01:33:57;97994.91;;;14.77;100.00
74868;BME280;63419;42.262;12.210;2023-01-08T01:36:25;97999.94;;;14.43;100.00
74868;BME280;63419;42.262;12.210;2023-01-08T01:38:56;97998.44;;;13.91;100.00
74868;BME280;63419;42.262;12.210;2023-01-08T01:41:27;97993.34;;;15.10;100.00
74868;BME280;63419;42.262;12.210;2023-01-08T01:43:59;97988.47;;;14.94;100.00
74868;BME280;63419;42.262;12.210;2023-01-08T01:46:38;97992.28;;;15.13;100.00
74868;BME280;63419;42.262;12.210;2023-01-08T01:49:11;97998.78;;;14.72;100.00
74868;BME280;63419;42.262;12.210;2023-01-08T01:51:50;97990.50;;;15.02;100.00
74868;BME280;63419;42.262;12.210;2023-01-08T01:54:18;97994.38;;;14.96;100.00
74868;BME280;63419;42.262;12.210;2023-01-08T01:56:47;97993.59;;;14.72;100.00
74868;BME280;63419;42.262;12.210;2023-01-08T01:59:15;97994.97;;;14.89;100.00
74868;BME280;63419;42.262;12.210;2023-01-08T02:01:44;97995.53;;;14.57;100.00
74868;BME280;63419;42.262;12.210;2023-01-08T02:04:15;97999.47;;;14.01;100.00
74868;BME280;63419;42.262;12.210;2023-01-08T02:06:59;97993.91;;;14.43;100.00
74868;BME280;63419;42.262;12.210;2023-01-08T02:09:48;97985.69;;;14.73;100.00
74868;BME280;63419;42.262;12.210;2023-01-08T02:12:52;97982.47;;;14.94;100.00
74868;BME280;63419;42.262;12.210;2023-01-08T02:15:49;97985.34;;;13.43;100.00
74868;BME280;63419;42.262;12.210;2023-01-08T02:18:28;97972.69;;;14.49;100.00
74868;BME280;63419;42.262;12.210;2023-01-08T02:21:34;97983.22;;;14.83;100.00
74868;BME280;63419;42.262;12.210;2023-01-08T02:26:47;97980.31;;;14.88;100.00
74868;BME280;63419;42.262;12.210;2023-01-08T02:29:22;97981.84;;;14.42;100.00
74868;BME280;63419;42.262;12.210;2023-01-08T02:31:51;97980.69;;;14.59;100.00
74868;BME280;63419;42.262;12.210;2023-01-08T02:34:19;97979.84;;;14.94;100.00
74868;BME280;63419;42.262;12.210;2023-01-08T02:36:52;97979.38;;;14.89;100.00
74868;BME280;63419;42.262;12.210;2023-01-08T02:39:41;97975.50;;;14.22;100.00
74868;BME280;63419;42.262;12.210;2023-01-08T02:45:38;97972.13;;;15.39;100.00
74868;BME280;63419;42.262;12.210;2023-01-08T02:50:52;97965.50;;;15.57;100.00
74868;BME280;63419;42.262;12.210;2023-01-08T02:53:32;97969.75;;;15.25;100.00
74868;BME280;63419;42.262;12.210;2023-01-08T02:56:11;97971.16;;;15.29;100.00
74868;BME280;63419;42.262;12.210;2023-01-08T02:58:41;97958.03;;;14.72;100.00
74868;BME280;63419;42.262;12.210;2023-01-08T03:01:12;97965.91;;;14.95;100.00
74868;BME280;63419;42.262;12.210;2023-01-08T03:03:57;97954.03;;;15.26;100.00
74868;BME280;63419;42.262;12.210;2023-01-08T03:06:26;97966.34;;;13.55;100.00
74868;BME280;63419;42.262;12.210;2023-01-08T03:08:56;97964.28;;;14.58;100.00
74868;BME280;63419;42.262;12.210;2023-01-08T03:11:33;97945.75;;;14.39;100.00
74868;BME280;63419;42.262;12.210;2023-01-08T03:14:19;97960.09;;;13.83;100.00
74868;BME280;63419;42.262;12.210;2023-01-08T03:17:25;97951.19;;;14.60;100.00
74868;BME280;63419;42.262;12.210;2023-01-08T03:22:29;97948.59;;;14.60;100.00
74868;BME280;63419;42.262;12.210;2023-01-08T03:25:03;97948.00;;;15.26;100.00
74868;BME280;63419;42.262;12.210;2023-01-08T03:27:40;97944.19;;;15.07;100.00
74868;BME280;63419;42.262;12.210;2023-01-08T03:30:16;97940.09;;;15.16;100.00
74868;BME280;63419;42.262;12.210;2023-01-08T03:32:47;97935.84;;;15.60;100.00
74868;BME280;63419;42.262;12.210;2023-01-08T03:35:21;97938.03;;;14.85;100.00
74868;BME280;63419;42.262;12.210;2023-01-08T03:38:03;97932.88;;;15.53;100.00
74868;BME280;63419;42.262;12.210;2023-01-08T03:40:42;97935.69;;;15.84;100.00
74868;BME280;63419;42.262;12.210;2023-01-08T03:43:15;97930.13;;;14.98;100.00
74868;BME280;63419;42.262;12.210;2023-01-08T03:45:58;97929.78;;;15.14;100.00
74868;BME280;63419;42.262;12.210;2023-01-08T03:48:31;97932.50;;;15.01;100.00
74868;BME280;63419;42.262;12.210;2023-01-08T03:51:01;97927.44;;;15.56;100.00
74868;BME280;63419;42.262;12.210;2023-01-08T03:53:28;97917.75;;;15.58;100.00
74868;BME280;63419;42.262;12.210;2023-01-08T03:55:58;97922.72;;;15.28;100.00
74868;BME280;63419;42.262;12.210;2023-01-08T03:58:27;97931.56;;;15.59;100.00
74868;BME280;63419;42.262;12.210;2023-01-08T04:00:55;97924.72;;;15.80;100.00
74868;BME280;63419;42.262;12.210;2023-01-08T04:03:23;97921.63;;;15.75;100.00
74868;BME280;63419;42.262;12.210;2023-01-08T04:05:53;97921.53;;;15.54;100.00
74868;BME280;63419;42.262;12.210;2023-01-08T04:08:20;97920.44;;;15.68;100.00
74868;BME280;63419;42.262;12.210;2023-01-08T04:10:49;97916.31;;;15.66;100.00
74868;BME280;63419;42.262;12.210;2023-01-08T04:13:21;97912.28;;;15.73;100.00
74868;BME280;63419;42.262;12.210;2023-01-08T04:15:50;97921.75;;;15.63;100.00
74868;BME280;63419;42.262;12.210;2023-01-08T04:18:25;97922.69;;;15.50;100.00
74868;BME280;63419;42.262;12.210;2023-01-08T04:20:53;97923.75;;;15.02;100.00
74868;BME280;63419;42.262;12.210;2023-01-08T04:23:23;97928.88;;;15.15;100.00
74868;BME280;63419;42.262;12.210;2023-01-08T04:25:53;97932.34;;;14.80;100.00
74868;BME280;63419;42.262;12.210;2023-01-08T04:28:24;97918.00;;;15.44;100.00
74868;BME280;63419;42.262;12.210;2023-01-08T04:30:54;97921.16;;;15.02;100.00
74868;BME280;63419;42.262;12.210;2023-01-08T04:33:22;97922.13;;;15.24;100.00
74868;BME280;63419;42.262;12.210;2023-01-08T04:35:53;97918.47;;;15.49;100.00
74868;BME280;63419;42.262;12.210;2023-01-08T04:38:20;97919.53;;;15.35;100.00
74868;BME280;63419;42.262;12.210;2023-01-08T04:40:47;97929.94;;;15.24;100.00
74868;BME280;63419;42.262;12.210;2023-01-08T04:43:14;97916.69;;;15.27;100.00
74868;BME280;63419;42.262;12.210;2023-01-08T04:45:41;97916.53;;;15.63;100.00
74868;BME280;63419;42.262;12.210;2023-01-08T04:48:12;97920.13;;;15.39;100.00
74868;BME280;63419;42.262;12.210;2023-01-08T04:50:40;97904.38;;;15.52;100.00
74868;BME280;63419;42.262;12.210;2023-01-08T04:53:09;97914.22;;;15.37;100.00
74868;BME280;63419;42.262;12.210;2023-01-08T04:55:39;97919.63;;;15.00;100.00
74868;BME280;63419;42.262;12.210;2023-01-08T04:58:15;97917.63;;;15.37;100.00
74868;BME280;63419;42.262;12.210;2023-01-08T05:00:45;97915.84;;;15.60;100.00
74868;BME280;63419;42.262;12.210;2023-01-08T05:03:16;97909.44;;;15.65;100.00
74868;BME280;63419;42.262;12.210;2023-01-08T05:05:45;97909.94;;;15.36;100.00
74868;BME280;63419;42.262;12.210;2023-01-08T05:08:15;97906.41;;;15.26;100.00
74868;BME280;63419;42.262;12.210;2023-01-08T05:10:43;97902.28;;;15.46;100.00
74868;BME280;63419;42.262;12.210;2023-01-08T05:13:10;97912.03;;;14.85;100.00
74868;BME280;63419;42.262;12.210;2023-01-08T05:15:37;97898.13;;;14.87;100.00
74868;BME280;63419;42.262;12.210;2023-01-08T05:18:05;97899.03;;;14.74;100.00
74868;BME280;63419;42.262;12.210;2023-01-08T05:20:33;97901.38;;;14.66;100.00
74868;BME280;63419;42.262;12.210;2023-01-08T05:23:01;97899.50;;;14.79;100.00
74868;BME280;63419;42.262;12.210;2023-01-08T05:25:28;97900.03;;;15.30;100.00
74868;BME280;63419;42.262;12.210;2023-01-08T05:27:56;97897.03;;;14.78;100.00
74868;BME280;63419;42.262;12.210;2023-01-08T05:30:23;97894.66;;;14.63;100.00
74868;BME280;63419;42.262;12.210;2023-01-08T05:32:50;97896.75;;;14.34;100.00
74868;BME280;63419;42.262;12.210;2023-01-08T05:35:17;97897.84;;;14.67;100.00
74868;BME280;63419;42.262;12.210;2023-01-08T05:37:45;97886.31;;;15.05;100.00
74868;BME280;63419;42.262;12.210;2023-01-08T05:40:12;97893.84;;;14.97;100.00
74868;BME280;63419;42.262;12.210;2023-01-08T05:42:39;97896.19;;;14.77;100.00
74868;BME280;63419;42.262;12.210;2023-01-08T05:45:07;97898.19;;;13.90;100.00
74868;BME280;63419;42.262;12.210;2023-01-08T05:47:34;97893.31;;;14.58;100.00
74868;BME280;63419;42.262;12.210;2023-01-08T05:50:02;97881.34;;;15.02;100.00
74868;BME280;63419;42.262;12.210;2023-01-08T05:52:29;97880.41;;;15.26;100.00
74868;BME280;63419;42.262;12.210;2023-01-08T05:54:57;97885.13;;;14.98;100.00
74868;BME280;63419;42.262;12.210;2023-01-08T05:57:26;97886.31;;;15.05;100.00
74868;BME280;63419;42.262;12.210;2023-01-08T05:59:53;97884.53;;;14.94;100.00
74868;BME280;63419;42.262;12.210;2023-01-08T06:02:20;97883.38;;;15.21;100.00
74868;BME280;63419;42.262;12.210;2023-01-08T06:04:50;97880.03;;;15.08;100.00
74868;BME280;63419;42.262;12.210;2023-01-08T06:07:17;97881.09;;;14.82;100.00
74868;BME280;63419;42.262;12.210;2023-01-08T06:09:44;97888.88;;;14.71;100.00
74868;BME280;63419;42.262;12.210;2023-01-08T06:12:12;97883.59;;;14.48;100.00
74868;BME280;63419;42.262;12.210;2023-01-08T06:14:39;97887.72;;;14.16;100.00
74868;BME280;63419;42.262;12.210;2023-01-08T06:17:06;97889.56;;;14.38;100.00
74868;BME280;63419;42.262;12.210;2023-01-08T06:19:33;97883.78;;;14.34;100.00
74868;BME280;63419;42.262;12.210;2023-01-08T06:22:00;97878.81;;;14.31;100.00
74868;BME280;63419;42.262;12.210;2023-01-08T06:24:28;97883.84;;;14.57;100.00
74868;BME280;63419;42.262;12.210;2023-01-08T06:26:55;97890.09;;;13.95;100.00
74868;BME280;63419;42.262;12.210;2023-01-08T06:29:22;97895.00;;;14.11;100.00
74868;BME280;63419;42.262;12.210;2023-01-08T06:31:49;97894.19;;;13.23;100.00
74868;BME280;63419;42.262;12.210;2023-01-08T06:34:17;97906.69;;;13.68;100.00
74868;BME280;63419;42.262;12.210;2023-01-08T06:36:44;97897.84;;;14.67;100.00
74868;BME280;63419;42.262;12.210;2023-01-08T06:39:11;97908.25;;;14.90;100.00
74868;BME280;63419;42.262;12.210;2023-01-08T06:41:39;97905.19;;;13.40;100.00
74868;BME280;63419;42.262;12.210;2023-01-08T06:44:06;97909.72;;;14.34;100.00
74868;BME280;63419;42.262;12.210;2023-01-08T06:46:33;97909.44;;;14.85;100.00
74868;BME280;63419;42.262;12.210;2023-01-08T06:49:06;97899.31;;;15.05;100.00
74868;BME280;63419;42.262;12.210;2023-01-08T06:51:35;97906.78;;;14.63;100.00
74868;BME280;63419;42.262;12.210;2023-01-08T06:54:02;97909.25;;;14.29;100.00
74868;BME280;63419;42.262;12.210;2023-01-08T06:56:29;97910.75;;;14.56;100.00
74868;BME280;63419;42.262;12.210;2023-01-08T06:58:56;97915.03;;;13.09;100.00
74868;BME280;63419;42.262;12.210;2023-01-08T07:01:25;97920.25;;;13.71;100.00
74868;BME280;63419;42.262;12.210;2023-01-08T07:03:52;97908.56;;;14.38;100.00
74868;BME280;63419;42.262;12.210;2023-01-08T07:06:21;97914.25;;;14.68;100.00
74868;BME280;63419;42.262;12.210;2023-01-08T07:08:49;97904.41;;;15.18;100.00
74868;BME280;63419;42.262;12.210;2023-01-08T07:11:16;97904.25;;;15.87;100.00
74868;BME280;63419;42.262;12.210;2023-01-08T07:13:43;97905.78;;;15.78;100.00
74868;BME280;63419;42.262;12.210;2023-01-08T07:16:13;97907.47;;;15.34;100.00
74868;BME280;63419;42.262;12.210;2023-01-08T07:18:41;97915.00;;;14.57;100.00
74868;BME280;63419;42.262;12.210;2023-01-08T07:21:08;97912.78;;;14.28;100.00
74868;BME280;63419;42.262;12.210;2023-01-08T07:23:37;97911.41;;;14.35;100.00
74868;BME280;63419;42.262;12.210;2023-01-08T07:26:06;97899.50;;;14.79;100.00
74868;BME280;63419;42.262;12.210;2023-01-08T07:28:34;97911.41;;;12.99;100.00
74868;BME280;63419;42.262;12.210;2023-01-08T07:31:05;97909.78;;;13.97;100.00
74868;BME280;63419;42.262;12.210;2023-01-08T07:33:33;97923.41;;;12.74;100.00
74868;BME280;63419;42.262;12.210;2023-01-08T07:36:03;97923.84;;;13.06;100.00
74868;BME280;63419;42.262;12.210;2023-01-08T07:38:31;97926.03;;;13.00;100.00
74868;BME280;63419;42.262;12.210;2023-01-08T07:40:59;97920.44;;;13.06;100.00
74868;BME280;63419;42.262;12.210;2023-01-08T07:43:27;97914.09;;;13.23;100.00
74868;BME280;63419;42.262;12.210;2023-01-08T07:45:56;97916.16;;;12.66;100.00
74868;BME280;63419;42.262;12.210;2023-01-08T07:48:23;97910.56;;;13.37;100.00
74868;BME280;63419;42.262;12.210;2023-01-08T07:50:51;97910.22;;;14.39;100.00
74868;BME280;63419;42.262;12.210;2023-01-08T07:53:18;97909.03;;;14.08;100.00
74868;BME280;63419;42.262;12.210;2023-01-08T07:55:45;97912.94;;;14.62;100.00
74868;BME280;63419;42.262;12.210;2023-01-08T07:58:14;97908.66;;;15.19;100.00
74868;BME280;63419;42.262;12.210;2023-01-08T08:00:41;97906.63;;;14.89;100.00
74868;BME280;63419;42.262;12.210;2023-01-08T08:03:09;97888.16;;;16.26;100.00
74868;BME280;63419;42.262;12.210;2023-01-08T08:05:39;97898.41;;;15.95;100.00
74868;BME280;63419;42.262;12.210;2023-01-08T08:08:11;97889.50;;;17.04;100.00
74868;BME280;63419;42.262;12.210;2023-01-08T08:10:40;97889.50;;;16.62;100.00
74868;BME280;63419;42.262;12.210;2023-01-08T08:13:09;97912.28;;;14.23;100.00
74868;BME280;63419;42.262;12.210;2023-01-08T08:15:38;97902.34;;;15.89;100.00
74868;BME280;63419;42.262;12.210;2023-01-08T08:18:07;97908.81;;;14.11;100.00
74868;BME280;63419;42.262;12.210;2023-01-08T08:20:35;97906.91;;;14.61;100.00
74868;BME280;63419;42.262;12.210;2023-01-08T08:23:09;97897.53;;;16.38;100.00
74868;BME280;63419;42.262;12.210;2023-01-08T08:25:36;97887.91;;;16.50;100.00
74868;BME280;63419;42.262;12.210;2023-01-08T08:28:04;97896.94;;;16.46;100.00
74868;BME280;63419;42.262;12.210;2023-01-08T08:30:34;97899.75;;;16.22;100.00
74868;BME280;63419;42.262;12.210;2023-01-08T08:33:04;97910.16;;;14.88;100.00
74868;BME280;63419;42.262;12.210;2023-01-08T08:35:33;97900.69;;;16.95;100.00
74868;BME280;63419;42.262;12.210;2023-01-08T08:38:00;97882.72;;;16.71;100.00
74868;BME280;63419;42.262;12.210;2023-01-08T08:40:28;97885.28;;;17.44;100.00
74868;BME280;63419;42.262;12.210;2023-01-08T08:43:03;97904.44;;;14.12;100.00
74868;BME280;63419;42.262;12.210;2023-01-08T08:45:30;97901.28;;;15.92;100.00
74868;BME280;63419;42.262;12.210;2023-01-08T08:47:57;97891.06;;;16.32;100.00
74868;BME280;63419;42.262;12.210;2023-01-08T08:50:25;97880.66;;;16.32;100.00
74868;BME280;63419;42.262;12.210;2023-01-08T08:52:58;97900.31;;;14.69;100.00
74868;BME280;63419;42.262;12.210;2023-01-08T08:55:31;97895.56;;;15.20;100.00
74868;BME280;63419;42.262;12.210;2023-01-08T08:58:09;97887.50;;;15.35;100.00
74868;BME280;63419;42.262;12.210;2023-01-08T09:00:39;97895.38;;;14.88;100.00
74868;BME280;63419;42.262;12.210;2023-01-08T09:03:12;97893.81;;;14.03;100.00
74868;BME280;63419;42.262;12.210;2023-01-08T09:05:41;97903.03;;;13.83;100.00
74868;BME280;63419;42.262;12.210;2023-01-08T09:08:10;97902.47;;;14.51;100.00
74868;BME280;63419;42.262;12.210;2023-01-08T09:10:39;97896.81;;;15.49;100.00
74868;BME280;63419;42.262;12.210;2023-01-08T09:13:09;97893.66;;;15.22;100.00
74868;BME280;63419;42.262;12.210;2023-01-08T09:15:37;97892.78;;;16.43;100.00
74868;BME280;63419;42.262;12.210;2023-01-08T09:18:05;97893.06;;;15.30;100.00
74868;BME280;63419;42.262;12.210;2023-01-08T09:20:32;97894.25;;;16.04;100.00
74868;BME280;63419;42.262;12.210;2023-01-08T09:23:01;97895.75;;;16.17;100.00
74868;BME280;63419;42.262;12.210;2023-01-08T09:25:29;97888.91;;;15.50;100.00
74868;BME280;63419;42.262;12.210;2023-01-08T09:28:03;97898.75;;;13.45;100.00
74868;BME280;63419;42.262;12.210;2023-01-08T09:30:32;97898.41;;;14.35;100.00
74868;BME280;63419;42.262;12.210;2023-01-08T09:33:02;97885.09;;;15.77;100.00
74868;BME280;63419;42.262;12.210;2023-01-08T09:35:33;97877.56;;;17.42;100.00
74868;BME280;63419;42.262;12.210;2023-01-08T09:38:00;97872.16;;;17.65;100.00
74868;BME280;63419;42.262;12.210;2023-01-08T09:40:40;97871.66;;;18.39;100.00
74868;BME280;63419;42.262;12.210;2023-01-08T09:43:18;97862.16;;;17.29;100.00
74868;BME280;63419;42.262;12.210;2023-01-08T09:45:57;97878.00;;;14.77;100.00
74868;BME280;63419;42.262;12.210;2023-01-08T09:48:38;97856.00;;;17.91;100.00
74868;BME280;63419;42.262;12.210;2023-01-08T09:51:15;97874.72;;;15.43;100.00
74868;BME280;63419;42.262;12.210;2023-01-08T09:53:44;97879.84;;;13.56;100.00
74868;BME280;63419;42.262;12.210;2023-01-08T09:56:16;97883.56;;;15.52;100.00
74868;BME280;63419;42.262;12.210;2023-01-08T09:58:47;97889.88;;;13.98;100.00
74868;BME280;63419;42.262;12.210;2023-01-08T10:01:40;97879.41;;;15.72;100.00
74868;BME280;63419;42.262;12.210;2023-01-08T10:04:20;97873.19;;;15.74;100.00
74868;BME280;63419;42.262;12.210;2023-01-08T10:06:54;97872.13;;;15.54;100.00
74868;BME280;63419;42.262;12.210;2023-01-08T10:09:29;97868.25;;;15.26;100.00
74868;BME280;63419;42.262;12.210;2023-01-08T10:12:03;97875.72;;;13.54;100.00
74868;BME280;63419;42.262;12.210;2023-01-08T10:14:35;97883.53;;;14.02;100.00
74868;BME280;63419;42.262;12.210;2023-01-08T10:17:35;97875.97;;;14.23;100.00
74868;BME280;63419;42.262;12.210;2023-01-08T10:20:22;97877.41;;;13.16;100.00
74868;BME280;63419;42.262;12.210;2023-01-08T10:22:51;97882.84;;;14.35;100.00
74868;BME280;63419;42.262;12.210;2023-01-08T10:25:26;97872.59;;;15.26;100.00
74868;BME280;63419;42.262;12.210;2023-01-08T10:28:01;97867.69;;;14.18;100.00
74868;BME280;63419;42.262;12.210;2023-01-08T10:30:37;97864.22;;;14.41;100.00
74868;BME280;63419;42.262;12.210;2023-01-08T10:33:38;97858.66;;;14.81;100.00
74868;BME280;63419;42.262;12.210;2023-01-08T10:36:11;97851.59;;;17.00;100.00
74868;BME280;63419;42.262;12.210;2023-01-08T10:38:58;97832.47;;;18.39;100.00
74868;BME280;63419;42.262;12.210;2023-01-08T10:41:27;97823.97;;;16.88;100.00
74868;BME280;63419;42.262;12.210;2023-01-08T10:44:00;97845.09;;;15.89;100.00
74868;BME280;63419;42.262;12.210;2023-01-08T10:46:43;97852.41;;;14.84;100.00
74868;BME280;63419;42.262;12.210;2023-01-08T10:49:37;97840.41;;;16.36;100.00
74868;BME280;63419;42.262;12.210;2023-01-08T10:52:30;97853.91;;;13.56;100.00
74868;BME280;63419;42.262;12.210;2023-01-08T10:55:28;97842.16;;;14.94;100.00
74868;BME280;63419;42.262;12.210;2023-01-08T10:58:00;97835.78;;;15.64;100.00
74868;BME280;63419;42.262;12.210;2023-01-08T11:00:32;97827.06;;;15.65;100.00
74868;BME280;63419;42.262;12.210;2023-01-08T11:03:06;97809.09;;;17.60;100.00
74868;BME280;63419;42.262;12.210;2023-01-08T11:05:37;97803.31;;;16.96;100.00
74868;BME280;63419;42.262;12.210;2023-01-08T11:08:18;97805.81;;;17.58;100.00
74868;BME280;63419;42.262;12.210;2023-01-08T11:10:58;97817.03;;;15.49;100.00
74868;BME280;63419;42.262;12.210;2023-01-08T11:13:27;97828.06;;;14.96;100.00
74868;BME280;63419;42.262;12.210;2023-01-08T11:16:02;97830.06;;;14.70;100.00
74868;BME280;63419;42.262;12.210;2023-01-08T11:18:41;97831.72;;;15.16;100.00
74868;BME280;63419;42.262;12.210;2023-01-08T11:21:53;97823.81;;;14.95;100.00
74868;BME280;63419;42.262;12.210;2023-01-08T11:24:14;97808.84;;;15.65;100.00
74868;BME280;63419;42.262;12.210;2023-01-08T11:26:52;97802.44;;;15.14;100.00
74868;BME280;63419;42.262;12.210;2023-01-08T11:37:59;97787.78;;;15.25;100.00
74868;BME280;63419;42.262;12.210;2023-01-08T11:41:12;97782.50;;;14.92;100.00
74868;BME280;63419;42.262;12.210;2023-01-08T11:47:08;97772.94;;;14.59;100.00
74868;BME280;63419;42.262;12.210;2023-01-08T11:50:34;97774.22;;;14.06;100.00
74868;BME280;63419;42.262;12.210;2023-01-08T11:53:05;97768.97;;;13.60;100.00
74868;BME280;63419;42.262;12.210;2023-01-08T12:08:51;97722.44;;;16.46;100.00
74868;BME280;63419;42.262;12.210;2023-01-08T12:11:30;97671.66;;;20.00;100.00
74868;BME280;63419;42.262;12.210;2023-01-08T12:17:44;97665.88;;;18.23;100.00
74868;BME280;63419;42.262;12.210;2023-01-08T12:20:34;97681.13;;;16.72;100.00
74868;BME280;63419;42.262;12.210;2023-01-08T12:34:52;97698.41;;;14.37;100.00
74868;BME280;63419;42.262;12.210;2023-01-08T12:40:57;97698.88;;;14.31;100.00
74868;BME280;63419;42.262;12.210;2023-01-08T12:43:47;97688.38;;;14.43;100.00
74868;BME280;63419;42.262;12.210;2023-01-08T12:46:18;97686.72;;;14.54;100.00
74868;BME280;63419;42.262;12.210;2023-01-08T12:48:50;97677.41;;;14.28;100.00
74868;BME280;63419;42.262;12.210;2023-01-08T12:55:05;97659.81;;;14.55;100.00
74868;BME280;63419;42.262;12.210;2023-01-08T12:58:16;97669.25;;;14.44;100.00
74868;BME280;63419;42.262;12.210;2023-01-08T13:03:47;97661.50;;;14.33;100.00
74868;BME280;63419;42.262;12.210;2023-01-08T13:06:18;97660.31;;;14.26;100.00
74868;BME280;63419;42.262;12.210;2023-01-08T13:09:04;97642.31;;;15.23;100.00
74868;BME280;63419;42.262;12.210;2023-01-08T13:11:36;97643.78;;;14.16;100.00
74868;BME280;63419;42.262;12.210;2023-01-08T13:14:11;97643.97;;;13.79;100.00
74868;BME280;63419;42.262;12.210;2023-01-08T13:16:44;97646.13;;;14.19;100.00
74868;BME280;63419;42.262;12.210;2023-01-08T13:19:44;97637.97;;;13.89;100.00
74868;BME280;63419;42.262;12.210;2023-01-08T13:22:35;97643.25;;;13.65;100.00
74868;BME280;63419;42.262;12.210;2023-01-08T13:25:26;97639.59;;;13.08;100.00
74868;BME280;63419;42.262;12.210;2023-01-08T13:27:56;97647.19;;;13.47;100.00
74868;BME280;63419;42.262;12.210;2023-01-08T13:33:45;97629.88;;;12.99;100.00
74868;BME280;63419;42.262;12.210;2023-01-08T13:36:26;97642.34;;;13.18;100.00
74868;BME280;63419;42.262;12.210;2023-01-08T13:44:26;97641.03;;;13.37;100.00
74868;BME280;63419;42.262;12.210;2023-01-08T13:47:01;97629.16;;;14.37;100.00
74868;BME280;63419;42.262;12.210;2023-01-08T13:49:51;97633.94;;;13.74;100.00
74868;BME280;63419;42.262;12.210;2023-01-08T13:52:43;97628.09;;;14.17;100.00
74868;BME280;63419;42.262;12.210;2023-01-08T13:55:19;97624.88;;;13.80;100.00
74868;BME280;63419;42.262;12.210;2023-01-08T13:57:53;97618.44;;;13.39;100.00
74868;BME280;63419;42.262;12.210;2023-01-08T14:03:33;97625.97;;;14.00;100.00
74868;BME280;63419;42.262;12.210;2023-01-08T14:06:27;97604.31;;;14.78;100.00
74868;BME280;63419;42.262;12.210;2023-01-08T14:09:00;97603.78;;;14.18;100.00
74868;BME280;63419;42.262;12.210;2023-01-08T14:11:42;97605.53;;;13.84;100.00
74868;BME280;63419;42.262;12.210;2023-01-08T14:14:17;97619.44;;;13.83;100.00
74868;BME280;63419;42.262;12.210;2023-01-08T14:16:51;97611.41;;;13.63;100.00
74868;BME280;63419;42.262;12.210;2023-01-08T14:19:23;97617.59;;;13.14;100.00
74868;BME280;63419;42.262;12.210;2023-01-08T14:21:58;97609.44;;;13.78;100.00
74868;BME280;63419;42.262;12.210;2023-01-08T14:24:27;97608.50;;;14.02;100.00